sensor_id;sensor_type;location;lat;lon;timestamp;pressure;altitude;pressure_sealevel;temperature;humidity
1926;BME280;964;42.606;23.588;2023-04-06T00:02:17;94272.41;;;19.35;25.30
1926;BME280;964;42.606;23.588;2023-04-06T00:04:44;94267.50;;;19.30;24.87
1926;BME280;964;42.606;23.588;2023-04-06T00:07:11;94274.91;;;18.22;26.99
1926;BME280;964;42.606;23.588;2023-04-06T00:09:38;94259.72;;;18.92;25.95
1926;BME280;964;42.606;23.588;2023-04-06T00:12:06;94256.66;;;18.67;26.45
1926;BME280;964;42.606;23.588;2023-04-06T00:14:33;94259.66;;;19.19;25.90
1926;BME280;964;42.606;23.588;2023-04-06T00:17:01;94255.19;;;19.09;25.75
1926;BME280;964;42.606;23.588;2023-04-06T00:19:28;94249.59;;;19.23;25.34
1926;BME280;964;42.606;23.588;2023-04-06T00:21:55;94244.50;;;19.52;25.20
1926;BME280;964;42.606;23.588;2023-04-06T00:24:22;94241.25;;;19.61;24.89
1926;BME280;964;42.606;23.588;2023-04-06T00:26:49;94248.44;;;18.78;26.26
1926;BME280;964;42.606;23.588;2023-04-06T00:29:16;94245.56;;;18.88;25.49
1926;BME280;964;42.606;23.588;2023-04-06T00:31:43;94240.66;;;18.33;26.45
1926;BME280;964;42.606;23.588;2023-04-06T00:34:11;94238.28;;;18.12;27.40
1926;BME280;964;42.606;23.588;2023-04-06T00:36:40;94234.94;;;18.58;26.11
1926;BME280;964;42.606;23.588;2023-04-06T00:39:07;94233.09;;;19.01;25.93
1926;BME280;964;42.606;23.588;2023-04-06T00:41:34;94235.19;;;18.67;27.02
1926;BME280;964;42.606;23.588;2023-04-06T00:44:01;94231.06;;;19.29;26.39
1926;BME280;964;42.606;23.588;2023-04-06T00:46:28;94229.31;;;19.42;25.89
1926;BME280;964;42.606;23.588;2023-04-06T00:48:55;94221.84;;;19.30;25.89
1926;BME280;964;42.606;23.588;2023-04-06T00:51:24;94220.94;;;19.36;26.44
1926;BME280;964;42.606;23.588;2023-04-06T00:53:52;94218.97;;;19.99;25.30
1926;BME280;964;42.606;23.588;2023-04-06T00:56:19;94219.13;;;20.28;24.90
1926;BME280;964;42.606;23.588;2023-04-06T00:58:46;94223.13;;;19.84;25.43
1926;BME280;964;42.606;23.588;2023-04-06T01:01:13;94220.66;;;19.31;26.00
1926;BME280;964;42.606;23.588;2023-04-06T01:03:40;94213.13;;;19.85;25.38
1926;BME280;964;42.606;23.588;2023-04-06T01:06:09;94207.66;;;19.88;25.53
1926;BME280;964;42.606;23.588;2023-04-06T01:08:38;94207.38;;;20.02;25.38
1926;BME280;964;42.606;23.588;2023-04-06T01:11:04;94208.13;;;20.19;24.65
1926;BME280;964;42.606;23.588;2023-04-06T01:13:31;94206.72;;;19.59;24.91
1926;BME280;964;42.606;23.588;2023-04-06T01:15:58;94198.69;;;19.75;24.77
1926;BME280;964;42.606;23.588;2023-04-06T01:18:26;94197.59;;;19.92;24.87
1926;BME280;964;42.606;23.588;2023-04-06T01:20:53;94188.34;;;19.93;24.97
1926;BME280;964;42.606;23.588;2023-04-06T01:23:21;94193.09;;;19.86;25.52
1926;BME280;964;42.606;23.588;2023-04-06T01:25:49;94192.56;;;18.46;26.61
1926;BME280;964;42.606;23.588;2023-04-06T01:28:16;94184.53;;;19.55;25.36
1926;BME280;964;42.606;23.588;2023-04-06T01:30:42;94180.69;;;19.56;24.89
1926;BME280;964;42.606;23.588;2023-04-06T01:33:10;94182.34;;;20.22;24.79
1926;BME280;964;42.606;23.588;2023-04-06T01:35:37;94176.13;;;20.25;24.70
1926;BME280;964;42.606;23.588;2023-04-06T01:38:04;94175.06;;;20.38;24.63
1926;BME280;964;42.606;23.588;2023-04-06T01:40:32;94177.41;;;20.00;25.06
1926;BME280;964;42.606;23.588;2023-04-06T01:42:59;94180.06;;;19.48;25.59
1926;BME280;964;42.606;23.588;2023-04-06T01:45:26;94179.63;;;20.05;25.16
1926;BME280;964;42.606;23.588;2023-04-06T01:47:53;94181.06;;;20.26;25.02
1926;BME280;964;42.606;23.588;2023-04-06T01:50:19;94172.31;;;19.70;25.42
1926;BME280;964;42.606;23.588;2023-04-06T01:52:46;94182.31;;;19.50;25.42
1926;BME280;964;42.606;23.588;2023-04-06T01:55:13;94170.16;;;19.02;25.75
1926;BME280;964;42.606;23.588;2023-04-06T01:57:42;94168.66;;;19.01;26.34
1926;BME280;964;42.606;23.588;2023-04-06T02:00:10;94178.13;;;18.86;25.67
1926;BME280;964;42.606;23.588;2023-04-06T02:02:37;94169.38;;;19.02;25.93
1926;BME280;964;42.606;23.588;2023-04-06T02:05:05;94172.03;;;19.25;25.55
1926;BME280;964;42.606;23.588;2023-04-06T02:07:32;94169.38;;;19.45;25.37
1926;BME280;964;42.606;23.588;2023-04-06T02:09:59;94174.31;;;18.84;25.84
1926;BME280;964;42.606;23.588;2023-04-06T02:12:26;94167.63;;;18.72;26.06
1926;BME280;964;42.606;23.588;2023-04-06T02:14:54;94171.44;;;18.94;25.49
1926;BME280;964;42.606;23.588;2023-04-06T02:17:21;94169.25;;;18.66;25.88
1926;BME280;964;42.606;23.588;2023-04-06T02:19:48;94164.72;;;18.63;25.99
1926;BME280;964;42.606;23.588;2023-04-06T02:22:15;94165.69;;;18.49;26.17
1926;BME280;964;42.606;23.588;2023-04-06T02:24:42;94166.00;;;18.55;26.01
1926;BME280;964;42.606;23.588;2023-04-06T02:27:09;94150.41;;;19.32;25.24
1926;BME280;964;42.606;23.588;2023-04-06T02:29:36;94162.78;;;17.26;27.00
1926;BME280;964;42.606;23.588;2023-04-06T02:32:05;94160.78;;;17.64;27.45
1926;BME280;964;42.606;23.588;2023-04-06T02:34:32;94160.22;;;18.06;27.83
1926;BME280;964;42.606;23.588;2023-04-06T02:36:58;94148.94;;;17.92;27.37
1926;BME280;964;42.606;23.588;2023-04-06T02:39:26;94161.06;;;18.27;26.91
1926;BME280;964;42.606;23.588;2023-04-06T02:41:52;94157.66;;;18.23;27.12
1926;BME280;964;42.606;23.588;2023-04-06T02:44:20;94162.53;;;18.04;27.41
1926;BME280;964;42.606;23.588;2023-04-06T02:46:47;94144.41;;;18.39;26.91
1926;BME280;964;42.606;23.588;2023-04-06T02:49:15;94148.50;;;18.70;25.82
1926;BME280;964;42.606;23.588;2023-04-06T02:51:42;94143.13;;;18.70;25.93
1926;BME280;964;42.606;23.588;2023-04-06T02:54:10;94159.91;;;18.51;26.65
1926;BME280;964;42.606;23.588;2023-04-06T02:56:37;94151.16;;;19.13;25.51
1926;BME280;964;42.606;23.588;2023-04-06T02:59:04;94150.25;;;19.39;25.38
1926;BME280;964;42.606;23.588;2023-04-06T03:01:31;94160.31;;;19.35;25.51
1926;BME280;964;42.606;23.588;2023-04-06T03:03:58;94159.97;;;19.14;26.04
1926;BME280;964;42.606;23.588;2023-04-06T03:06:26;94159.34;;;18.63;27.63
1926;BME280;964;42.606;23.588;2023-04-06T03:08:53;94161.91;;;19.33;26.91
1926;BME280;964;42.606;23.588;2023-04-06T03:11:20;94158.00;;;19.57;26.03
1926;BME280;964;42.606;23.588;2023-04-06T03:13:47;94151.88;;;19.92;25.65
1926;BME280;964;42.606;23.588;2023-04-06T03:16:14;94157.78;;;20.20;25.77
1926;BME280;964;42.606;23.588;2023-04-06T03:18:41;94162.69;;;20.57;25.54
1926;BME280;964;42.606;23.588;2023-04-06T03:21:10;94162.66;;;20.73;25.18
1926;BME280;964;42.606;23.588;2023-04-06T03:23:38;94164.38;;;20.67;25.43
1926;BME280;964;42.606;23.588;2023-04-06T03:26:05;94163.28;;;21.10;24.94
1926;BME280;964;42.606;23.588;2023-04-06T03:28:32;94168.84;;;20.41;25.54
1926;BME280;964;42.606;23.588;2023-04-06T03:30:59;94171.59;;;19.86;26.23
1926;BME280;964;42.606;23.588;2023-04-06T03:33:26;94166.75;;;19.97;26.23
1926;BME280;964;42.606;23.588;2023-04-06T03:35:53;94158.63;;;20.17;25.77
1926;BME280;964;42.606;23.588;2023-04-06T03:38:20;94167.22;;;20.76;25.20
1926;BME280;964;42.606;23.588;2023-04-06T03:40:49;94163.59;;;20.67;25.55
1926;BME280;964;42.606;23.588;2023-04-06T03:43:15;94163.16;;;20.20;25.86
1926;BME280;964;42.606;23.588;2023-04-06T03:45:42;94163.88;;;20.56;25.56
1926;BME280;964;42.606;23.588;2023-04-06T03:48:09;94161.28;;;20.00;25.84
1926;BME280;964;42.606;23.588;2023-04-06T03:50:36;94162.66;;;20.08;26.05
1926;BME280;964;42.606;23.588;2023-04-06T03:53:03;94157.28;;;20.25;25.42
1926;BME280;964;42.606;23.588;2023-04-06T03:55:30;94159.16;;;20.60;25.53
1926;BME280;964;42.606;23.588;2023-04-06T03:57:58;94160.69;;;20.29;25.54
1926;BME280;964;42.606;23.588;2023-04-06T04:00:25;94158.78;;;20.90;24.74
1926;BME280;964;42.606;23.588;2023-04-06T04:02:52;94159.94;;;20.28;25.75
1926;BME280;964;42.606;23.588;2023-04-06T04:05:19;94150.72;;;20.26;25.24
1926;BME280;964;42.606;23.588;2023-04-06T04:08:08;94157.94;;;20.13;25.06
1926;BME280;964;42.606;23.588;2023-04-06T04:10:49;94159.25;;;19.52;25.66
1926;BME280;964;42.606;23.588;2023-04-06T04:13:17;94160.41;;;20.07;25.40
1926;BME280;964;42.606;23.588;2023-04-06T04:15:44;94157.56;;;20.63;24.62
1926;BME280;964;42.606;23.588;2023-04-06T04:18:12;94156.28;;;20.51;25.12
1926;BME280;964;42.606;23.588;2023-04-06T04:20:39;94151.59;;;20.71;24.85
1926;BME280;964;42.606;23.588;2023-04-06T04:23:06;94159.00;;;20.67;25.00
1926;BME280;964;42.606;23.588;2023-04-06T04:25:33;94155.44;;;20.86;25.14
1926;BME280;964;42.606;23.588;2023-04-06T04:28:00;94161.41;;;20.78;25.01
1926;BME280;964;42.606;23.588;2023-04-06T04:30:28;94155.56;;;20.95;25.20
1926;BME280;964;42.606;23.588;2023-04-06T04:32:55;94159.97;;;20.73;25.32
1926;BME280;964;42.606;23.588;2023-04-06T04:35:22;94162.34;;;20.87;25.03
1926;BME280;964;42.606;23.588;2023-04-06T04:37:49;94159.69;;;20.39;25.35
1926;BME280;964;42.606;23.588;2023-04-06T04:40:15;94163.72;;;20.31;25.32
1926;BME280;964;42.606;23.588;2023-04-06T04:42:43;94162.84;;;20.66;24.85
1926;BME280;964;42.606;23.588;2023-04-06T04:45:10;94157.63;;;20.59;24.87
1926;BME280;964;42.606;23.588;2023-04-06T04:47:38;94163.00;;;20.27;25.38
1926;BME280;964;42.606;23.588;2023-04-06T04:50:06;94158.53;;;20.20;25.06
1926;BME280;964;42.606;23.588;2023-04-06T04:52:33;94161.88;;;19.56;25.13
1926;BME280;964;42.606;23.588;2023-04-06T04:55:01;94162.19;;;19.94;25.29
1926;BME280;964;42.606;23.588;2023-04-06T04:57:28;94148.75;;;19.38;25.88
1926;BME280;964;42.606;23.588;2023-04-06T04:59:55;94159.56;;;19.35;25.99
1926;BME280;964;42.606;23.588;2023-04-06T05:02:22;94157.75;;;19.87;25.48
1926;BME280;964;42.606;23.588;2023-04-06T05:04:50;94159.69;;;20.39;24.94
1926;BME280;964;42.606;23.588;2023-04-06T05:07:17;94152.44;;;20.52;24.85
1926;BME280;964;42.606;23.588;2023-04-06T05:09:46;94157.09;;;20.80;24.92
1926;BME280;964;42.606;23.588;2023-04-06T05:12:13;94158.06;;;20.58;25.09
1926;BME280;964;42.606;23.588;2023-04-06T05:14:40;94161.47;;;20.26;25.95
1926;BME280;964;42.606;23.588;2023-04-06T05:17:07;94160.41;;;20.55;25.47
1926;BME280;964;42.606;23.588;2023-04-06T05:19:34;94157.72;;;21.17;24.94
1926;BME280;964;42.606;23.588;2023-04-06T05:22:02;94153.97;;;20.98;25.31
1926;BME280;964;42.606;23.588;2023-04-06T05:24:29;94153.53;;;20.99;24.94
1926;BME280;964;42.606;23.588;2023-04-06T05:26:56;94156.03;;;21.07;24.82
1926;BME280;964;42.606;23.588;2023-04-06T05:29:23;94154.19;;;21.61;24.51
1926;BME280;964;42.606;23.588;2023-04-06T05:31:50;94153.66;;;21.66;24.83
1926;BME280;964;42.606;23.588;2023-04-06T05:34:17;94152.97;;;21.37;24.97
1926;BME280;964;42.606;23.588;2023-04-06T05:36:44;94151.28;;;20.98;25.35
1926;BME280;964;42.606;23.588;2023-04-06T05:39:13;94151.59;;;21.00;25.10
1926;BME280;964;42.606;23.588;2023-04-06T05:41:40;94143.16;;;21.43;24.87
1926;BME280;964;42.606;23.588;2023-04-06T05:44:07;94140.34;;;21.34;25.08
1926;BME280;964;42.606;23.588;2023-04-06T05:46:34;94130.75;;;21.99;24.02
1926;BME280;964;42.606;23.588;2023-04-06T05:49:01;94127.81;;;21.94;23.80
1926;BME280;964;42.606;23.588;2023-04-06T05:51:28;94133.94;;;21.69;24.49
1926;BME280;964;42.606;23.588;2023-04-06T05:53:55;94126.25;;;21.55;24.82
1926;BME280;964;42.606;23.588;2023-04-06T05:56:24;94131.06;;;21.35;24.06
1926;BME280;964;42.606;23.588;2023-04-06T05:58:51;94133.03;;;20.89;24.74
1926;BME280;964;42.606;23.588;2023-04-06T06:01:18;94125.41;;;21.58;23.66
1926;BME280;964;42.606;23.588;2023-04-06T06:03:45;94143.84;;;20.57;24.57
1926;BME280;964;42.606;23.588;2023-04-06T06:06:12;94125.34;;;21.04;24.29
1926;BME280;964;42.606;23.588;2023-04-06T06:08:39;94134.13;;;20.47;24.86
1926;BME280;964;42.606;23.588;2023-04-06T06:11:06;94136.91;;;20.43;25.07
1926;BME280;964;42.606;23.588;2023-04-06T06:13:34;94133.09;;;20.57;25.13
1926;BME280;964;42.606;23.588;2023-04-06T06:16:01;94132.47;;;20.17;25.10
1926;BME280;964;42.606;23.588;2023-04-06T06:18:30;94135.44;;;20.55;24.93
1926;BME280;964;42.606;23.588;2023-04-06T06:20:57;94138.88;;;20.72;25.03
1926;BME280;964;42.606;23.588;2023-04-06T06:23:24;94131.03;;;20.77;24.80
1926;BME280;964;42.606;23.588;2023-04-06T06:25:51;94119.56;;;21.47;24.42
1926;BME280;964;42.606;23.588;2023-04-06T06:28:18;94135.50;;;20.19;25.53
1926;BME280;964;42.606;23.588;2023-04-06T06:30:47;94130.41;;;20.41;25.00
1926;BME280;964;42.606;23.588;2023-04-06T06:33:13;94124.78;;;20.80;24.61
1926;BME280;964;42.606;23.588;2023-04-06T06:35:40;94121.53;;;21.18;24.59
1926;BME280;964;42.606;23.588;2023-04-06T06:38:07;94118.22;;;22.06;23.53
1926;BME280;964;42.606;23.588;2023-04-06T06:40:34;94119.81;;;21.78;23.66
1926;BME280;964;42.606;23.588;2023-04-06T06:43:02;94126.09;;;21.33;24.34
1926;BME280;964;42.606;23.588;2023-04-06T06:45:29;94123.25;;;21.12;24.74
1926;BME280;964;42.606;23.588;2023-04-06T06:47:58;94138.66;;;20.34;24.44
1926;BME280;964;42.606;23.588;2023-04-06T06:50:25;94129.53;;;20.76;25.08
1926;BME280;964;42.606;23.588;2023-04-06T06:52:51;94131.59;;;21.42;24.95
1926;BME280;964;42.606;23.588;2023-04-06T06:55:19;94121.53;;;21.84;24.09
1926;BME280;964;42.606;23.588;2023-04-06T06:57:45;94121.00;;;21.89;23.79
1926;BME280;964;42.606;23.588;2023-04-06T07:00:13;94130.38;;;21.72;23.76
1926;BME280;964;42.606;23.588;2023-04-06T07:02:40;94118.00;;;22.25;23.63
1926;BME280;964;42.606;23.588;2023-04-06T07:05:09;94118.25;;;23.00;23.10
1926;BME280;964;42.606;23.588;2023-04-06T07:07:36;94123.50;;;22.81;23.25
1926;BME280;964;42.606;23.588;2023-04-06T07:10:03;94124.91;;;21.88;24.22
1926;BME280;964;42.606;23.588;2023-04-06T07:12:30;94121.84;;;21.61;24.37
1926;BME280;964;42.606;23.588;2023-04-06T07:14:57;94125.50;;;22.68;23.37
1926;BME280;964;42.606;23.588;2023-04-06T07:17:24;94117.16;;;22.63;23.24
1926;BME280;964;42.606;23.588;2023-04-06T07:19:50;94123.56;;;23.25;22.48
1926;BME280;964;42.606;23.588;2023-04-06T07:22:19;94118.84;;;22.35;23.72
1926;BME280;964;42.606;23.588;2023-04-06T07:24:46;94127.69;;;21.72;24.51
1926;BME280;964;42.606;23.588;2023-04-06T07:27:13;94118.63;;;22.89;23.15
1926;BME280;964;42.606;23.588;2023-04-06T07:29:41;94127.47;;;22.30;23.35
1926;BME280;964;42.606;23.588;2023-04-06T07:32:08;94126.38;;;22.53;23.95
1926;BME280;964;42.606;23.588;2023-04-06T07:34:35;94132.13;;;22.04;24.24
1926;BME280;964;42.606;23.588;2023-04-06T07:37:02;94124.16;;;22.85;23.31
1926;BME280;964;42.606;23.588;2023-04-06T07:39:30;94126.22;;;22.09;23.81
1926;BME280;964;42.606;23.588;2023-04-06T07:41:57;94119.38;;;22.89;23.29
1926;BME280;964;42.606;23.588;2023-04-06T07:44:24;94121.06;;;22.74;23.70
1926;BME280;964;42.606;23.588;2023-04-06T07:46:51;94128.56;;;22.20;24.09
1926;BME280;964;42.606;23.588;2023-04-06T07:49:18;94111.41;;;23.42;22.43
1926;BME280;964;42.606;23.588;2023-04-06T07:51:46;94110.25;;;24.14;22.45
1926;BME280;964;42.606;23.588;2023-04-06T07:54:13;94113.63;;;23.65;22.53
1926;BME280;964;42.606;23.588;2023-04-06T07:56:41;94118.22;;;24.75;21.72
1926;BME280;964;42.606;23.588;2023-04-06T07:59:08;94116.16;;;23.90;22.28
1926;BME280;964;42.606;23.588;2023-04-06T08:01:36;94113.38;;;24.70;22.27
1926;BME280;964;42.606;23.588;2023-04-06T08:04:03;94122.75;;;24.20;21.82
1926;BME280;964;42.606;23.588;2023-04-06T08:06:30;94124.97;;;24.13;22.37
1926;BME280;964;42.606;23.588;2023-04-06T08:08:57;94122.50;;;23.97;22.05
1926;BME280;964;42.606;23.588;2023-04-06T08:11:24;94122.59;;;24.15;22.17
1926;BME280;964;42.606;23.588;2023-04-06T08:13:53;94132.25;;;22.13;23.10
1926;BME280;964;42.606;23.588;2023-04-06T08:16:21;94124.25;;;22.35;23.15
1926;BME280;964;42.606;23.588;2023-04-06T08:18:48;94119.16;;;23.18;23.03
1926;BME280;964;42.606;23.588;2023-04-06T08:21:15;94106.53;;;23.89;22.11
1926;BME280;964;42.606;23.588;2023-04-06T08:23:41;94113.22;;;23.45;22.48
1926;BME280;964;42.606;23.588;2023-04-06T08:26:08;94117.78;;;23.57;21.65
1926;BME280;964;42.606;23.588;2023-04-06T08:28:36;94111.25;;;24.47;21.57
1926;BME280;964;42.606;23.588;2023-04-06T08:31:07;94106.81;;;24.89;21.06
1926;BME280;964;42.606;23.588;2023-04-06T08:33:34;94106.97;;;25.13;21.33
1926;BME280;964;42.606;23.588;2023-04-06T08:36:08;94098.97;;;26.39;20.69
1926;BME280;964;42.606;23.588;2023-04-06T08:38:35;94113.75;;;25.18;21.04
1926;BME280;964;42.606;23.588;2023-04-06T08:41:07;94110.44;;;24.96;21.19
1926;BME280;964;42.606;23.588;2023-04-06T08:43:43;94113.34;;;24.03;21.80
1926;BME280;964;42.606;23.588;2023-04-06T08:46:12;94108.06;;;24.00;22.43
1926;BME280;964;42.606;23.588;2023-04-06T08:48:40;94112.88;;;24.05;22.36
1926;BME280;964;42.606;23.588;2023-04-06T08:51:08;94118.00;;;23.07;23.12
1926;BME280;964;42.606;23.588;2023-04-06T08:53:34;94102.69;;;23.04;23.12
1926;BME280;964;42.606;23.588;2023-04-06T08:56:03;94114.25;;;24.00;22.07
1926;BME280;964;42.606;23.588;2023-04-06T08:58:33;94117.28;;;23.71;21.95
1926;BME280;964;42.606;23.588;2023-04-06T09:01:02;94120.91;;;23.77;21.89
1926;BME280;964;42.606;23.588;2023-04-06T09:03:35;94111.97;;;23.24;22.36
1926;BME280;964;42.606;23.588;2023-04-06T09:06:03;94107.81;;;23.76;22.29
1926;BME280;964;42.606;23.588;2023-04-06T09:08:33;94114.88;;;24.53;21.14
1926;BME280;964;42.606;23.588;2023-04-06T09:11:00;94112.38;;;23.57;22.27
1926;BME280;964;42.606;23.588;2023-04-06T09:13:28;94117.50;;;23.21;22.24
1926;BME280;964;42.606;23.588;2023-04-06T09:16:19;94113.88;;;23.58;22.27
1926;BME280;964;42.606;23.588;2023-04-06T09:18:48;94107.31;;;24.48;21.81
1926;BME280;964;42.606;23.588;2023-04-06T09:21:17;94110.56;;;23.85;21.92
1926;BME280;964;42.606;23.588;2023-04-06T09:23:44;94103.06;;;23.58;21.48
1926;BME280;964;42.606;23.588;2023-04-06T09:26:12;94110.25;;;23.52;22.84
1926;BME280;964;42.606;23.588;2023-04-06T09:28:45;94106.53;;;23.37;22.96
1926;BME280;964;42.606;23.588;2023-04-06T09:31:13;94109.47;;;23.30;22.29
1926;BME280;964;42.606;23.588;2023-04-06T09:33:41;94108.28;;;23.31;22.08
1926;BME280;964;42.606;23.588;2023-04-06T09:36:10;94111.13;;;23.06;22.72
1926;BME280;964;42.606;23.588;2023-04-06T09:38:38;94111.81;;;23.62;21.80
1926;BME280;964;42.606;23.588;2023-04-06T09:41:05;94103.47;;;23.48;21.69
1926;BME280;964;42.606;23.588;2023-04-06T09:43:32;94101.31;;;23.64;22.35
1926;BME280;964;42.606;23.588;2023-04-06T09:46:00;94105.72;;;24.11;21.97
1926;BME280;964;42.606;23.588;2023-04-06T09:48:31;94105.94;;;23.94;21.75
1926;BME280;964;42.606;23.588;2023-04-06T09:50:59;94108.59;;;23.33;21.24
1926;BME280;964;42.606;23.588;2023-04-06T09:53:32;94104.63;;;24.39;21.25
1926;BME280;964;42.606;23.588;2023-04-06T09:56:03;94088.84;;;25.98;19.84
1926;BME280;964;42.606;23.588;2023-04-06T09:58:34;94089.38;;;26.76;19.48
1926;BME280;964;42.606;23.588;2023-04-06T10:01:07;94082.31;;;26.94;19.34
1926;BME280;964;42.606;23.588;2023-04-06T10:03:45;94073.47;;;28.10;18.61
1926;BME280;964;42.606;23.588;2023-04-06T10:06:15;94069.44;;;27.76;18.12
1926;BME280;964;42.606;23.588;2023-04-06T10:08:47;94074.31;;;26.10;19.53
1926;BME280;964;42.606;23.588;2023-04-06T10:11:16;94071.28;;;25.84;20.30
1926;BME280;964;42.606;23.588;2023-04-06T10:13:43;94095.47;;;24.55;21.42
1926;BME280;964;42.606;23.588;2023-04-06T10:16:13;94077.59;;;24.94;20.50
1926;BME280;964;42.606;23.588;2023-04-06T10:18:44;94092.78;;;24.73;21.03
1926;BME280;964;42.606;23.588;2023-04-06T10:21:15;94081.56;;;24.34;21.68
1926;BME280;964;42.606;23.588;2023-04-06T10:23:48;94086.28;;;24.52;20.87
1926;BME280;964;42.606;23.588;2023-04-06T10:26:16;94069.34;;;25.75;20.04
1926;BME280;964;42.606;23.588;2023-04-06T10:28:45;94060.88;;;25.13;20.63
1926;BME280;964;42.606;23.588;2023-04-06T10:31:12;94082.66;;;24.37;21.08
1926;BME280;964;42.606;23.588;2023-04-06T10:33:40;94075.63;;;24.85;20.61
1926;BME280;964;42.606;23.588;2023-04-06T10:36:10;94075.47;;;25.25;20.65
1926;BME280;964;42.606;23.588;2023-04-06T10:38:39;94075.81;;;23.83;21.78
1926;BME280;964;42.606;23.588;2023-04-06T10:41:09;94078.09;;;24.25;21.40
1926;BME280;964;42.606;23.588;2023-04-06T10:43:37;94077.06;;;23.91;21.64
1926;BME280;964;42.606;23.588;2023-04-06T10:46:06;94076.84;;;23.68;21.41
1926;BME280;964;42.606;23.588;2023-04-06T10:48:37;94064.94;;;25.00;20.31
1926;BME280;964;42.606;23.588;2023-04-06T10:51:08;94057.69;;;25.15;20.35
1926;BME280;964;42.606;23.588;2023-04-06T10:53:36;94045.09;;;26.05;20.00
1926;BME280;964;42.606;23.588;2023-04-06T10:56:04;94050.47;;;25.12;20.85
1926;BME280;964;42.606;23.588;2023-04-06T10:58:33;94063.00;;;25.09;20.47
1926;BME280;964;42.606;23.588;2023-04-06T11:01:00;94050.63;;;25.77;20.30
1926;BME280;964;42.606;23.588;2023-04-06T11:03:27;94059.41;;;26.05;20.26
1926;BME280;964;42.606;23.588;2023-04-06T11:05:54;94054.38;;;27.08;19.33
1926;BME280;964;42.606;23.588;2023-04-06T11:08:29;94044.94;;;26.79;19.74
1926;BME280;964;42.606;23.588;2023-04-06T11:11:07;94041.72;;;26.19;19.86
1926;BME280;964;42.606;23.588;2023-04-06T11:13:40;94052.16;;;25.78;20.14
1926;BME280;964;42.606;23.588;2023-04-06T11:16:13;94050.50;;;24.94;20.91
1926;BME280;964;42.606;23.588;2023-04-06T11:18:48;94048.06;;;24.96;20.62
1926;BME280;964;42.606;23.588;2023-04-06T11:21:15;94038.09;;;25.80;19.73
1926;BME280;964;42.606;23.588;2023-04-06T11:23:42;94044.00;;;25.09;20.14
1926;BME280;964;42.606;23.588;2023-04-06T11:26:10;94036.28;;;26.43;19.32
1926;BME280;964;42.606;23.588;2023-04-06T11:28:39;94032.25;;;27.00;18.93
1926;BME280;964;42.606;23.588;2023-04-06T11:31:08;94039.59;;;26.23;19.34
1926;BME280;964;42.606;23.588;2023-04-06T11:33:36;94037.75;;;26.29;19.48
1926;BME280;964;42.606;23.588;2023-04-06T11:36:04;94033.97;;;26.50;18.87
1926;BME280;964;42.606;23.588;2023-04-06T11:38:31;94029.25;;;26.36;19.31
1926;BME280;964;42.606;23.588;2023-04-06T11:40:58;94044.16;;;25.06;20.11
1926;BME280;964;42.606;23.588;2023-04-06T11:43:27;94032.47;;;25.93;19.58
1926;BME280;964;42.606;23.588;2023-04-06T11:46:01;94034.69;;;25.70;19.47
1926;BME280;964;42.606;23.588;2023-04-06T11:48:29;94060.09;;;24.67;20.13
1926;BME280;964;42.606;23.588;2023-04-06T11:50:56;94046.31;;;24.07;20.58
1926;BME280;964;42.606;23.588;2023-04-06T11:53:26;94043.28;;;23.65;20.69
1926;BME280;964;42.606;23.588;2023-04-06T11:55:53;94049.72;;;23.99;20.90
1926;BME280;964;42.606;23.588;2023-04-06T11:58:20;94044.75;;;24.37;20.52
1926;BME280;964;42.606;23.588;2023-04-06T12:00:47;94043.19;;;24.27;20.72
1926;BME280;964;42.606;23.588;2023-04-06T12:03:15;94043.50;;;24.38;20.32
1926;BME280;964;42.606;23.588;2023-04-06T12:05:43;94038.16;;;23.98;20.56
1926;BME280;964;42.606;23.588;2023-04-06T12:08:11;94046.84;;;23.53;20.29
1926;BME280;964;42.606;23.588;2023-04-06T12:10:37;94045.53;;;24.07;20.88
1926;BME280;964;42.606;23.588;2023-04-06T12:13:04;94036.63;;;24.55;20.71
1926;BME280;964;42.606;23.588;2023-04-06T12:15:31;94023.47;;;26.43;19.37
1926;BME280;964;42.606;23.588;2023-04-06T12:17:58;94021.09;;;26.36;19.43
1926;BME280;964;42.606;23.588;2023-04-06T12:20:27;94030.19;;;25.58;19.75
1926;BME280;964;42.606;23.588;2023-04-06T12:22:54;94025.16;;;26.08;19.43
1926;BME280;964;42.606;23.588;2023-04-06T12:25:20;94041.72;;;24.26;20.76
1926;BME280;964;42.606;23.588;2023-04-06T12:27:47;94034.69;;;24.92;20.41
1926;BME280;964;42.606;23.588;2023-04-06T12:30:15;94031.78;;;25.14;20.61
1926;BME280;964;42.606;23.588;2023-04-06T12:32:42;94037.66;;;24.67;20.57
1926;BME280;964;42.606;23.588;2023-04-06T12:35:09;94038.72;;;24.60;20.55
1926;BME280;964;42.606;23.588;2023-04-06T12:37:38;94048.31;;;23.45;21.28
1926;BME280;964;42.606;23.588;2023-04-06T12:40:06;94038.06;;;24.20;20.66
1926;BME280;964;42.606;23.588;2023-04-06T12:42:34;94046.31;;;24.07;20.52
1926;BME280;964;42.606;23.588;2023-04-06T12:45:01;94028.19;;;24.80;20.69
1926;BME280;964;42.606;23.588;2023-04-06T12:47:28;94022.94;;;24.68;20.29
1926;BME280;964;42.606;23.588;2023-04-06T12:49:55;94031.16;;;22.95;21.00
1926;BME280;964;42.606;23.588;2023-04-06T12:55:34;94027.16;;;24.02;20.71
1926;BME280;964;42.606;23.588;2023-04-06T12:58:00;94016.78;;;24.95;20.33
1926;BME280;964;42.606;23.588;2023-04-06T13:00:27;94017.84;;;24.88;20.45
1926;BME280;964;42.606;23.588;2023-04-06T13:02:54;94012.44;;;25.48;20.42
1926;BME280;964;42.606;23.588;2023-04-06T13:05:21;94021.25;;;24.34;20.58
1926;BME280;964;42.606;23.588;2023-04-06T13:07:48;94018.53;;;25.16;20.01
1926;BME280;964;42.606;23.588;2023-04-06T13:10:15;94009.03;;;26.04;19.38
1926;BME280;964;42.606;23.588;2023-04-06T13:12:43;94012.72;;;24.90;20.29
1926;BME280;964;42.606;23.588;2023-04-06T13:15:10;94010.09;;;25.14;19.82
1926;BME280;964;42.606;23.588;2023-04-06T13:17:37;94000.78;;;26.46;18.95
1926;BME280;964;42.606;23.588;2023-04-06T13:20:04;94000.38;;;27.30;18.70
1926;BME280;964;42.606;23.588;2023-04-06T13:22:32;93984.31;;;28.51;17.66
1926;BME280;964;42.606;23.588;2023-04-06T13:24:58;93993.91;;;27.92;18.06
1926;BME280;964;42.606;23.588;2023-04-06T13:27:25;93976.41;;;28.33;17.29
1926;BME280;964;42.606;23.588;2023-04-06T13:29:55;93993.78;;;27.22;18.05